sensor_id;sensor_type;location;lat;lon;timestamp;P1;durP1;ratioP1;P2;durP2;ratioP2
35887;SDS011;21990;42.540;23.496;2023-01-15T00:01:03;38.30;;;17.13;;
35887;SDS011;21990;42.540;23.496;2023-01-15T00:03:29;42.67;;;17.95;;
35887;SDS011;21990;42.540;23.496;2023-01-15T00:05:56;38.30;;;14.90;;
35887;SDS011;21990;42.540;23.496;2023-01-15T00:08:25;39.33;;;17.73;;
35887;SDS011;21990;42.540;23.496;2023-01-15T00:10:51;33.85;;;16.70;;
35887;SDS011;21990;42.540;23.496;2023-01-15T00:13:16;30.63;;;14.85;;
35887;SDS011;21990;42.540;23.496;2023-01-15T00:15:42;29.52;;;14.80;;
35887;SDS011;21990;42.540;23.496;2023-01-15T00:18:07;33.78;;;15.93;;
35887;SDS011;21990;42.540;23.496;2023-01-15T00:20:34;29.17;;;14.90;;
35887;SDS011;21990;42.540;23.496;2023-01-15T00:22:59;34.47;;;15.18;;
35887;SDS011;21990;42.540;23.496;2023-01-15T00:25:25;33.33;;;16.75;;
35887;SDS011;21990;42.540;23.496;2023-01-15T00:28:11;26.33;;;13.68;;
35887;SDS011;21990;42.540;23.496;2023-01-15T00:30:39;29.42;;;14.82;;
35887;SDS011;21990;42.540;23.496;2023-01-15T00:33:06;28.65;;;14.27;;
35887;SDS011;21990;42.540;23.496;2023-01-15T00:35:32;27.05;;;12.27;;
35887;SDS011;21990;42.540;23.496;2023-01-15T00:37:58;31.52;;;14.85;;
35887;SDS011;21990;42.540;23.496;2023-01-15T00:40:24;45.30;;;17.98;;
35887;SDS011;21990;42.540;23.496;2023-01-15T00:42:49;45.03;;;19.27;;
35887;SDS011;21990;42.540;23.496;2023-01-15T00:45:15;35.63;;;16.33;;
35887;SDS011;21990;42.540;23.496;2023-01-15T00:47:42;34.22;;;16.40;;
35887;SDS011;21990;42.540;23.496;2023-01-15T00:50:10;35.83;;;17.77;;
35887;SDS011;21990;42.540;23.496;2023-01-15T00:52:37;36.80;;;17.40;;
35887;SDS011;21990;42.540;23.496;2023-01-15T00:55:04;37.53;;;17.45;;
35887;SDS011;21990;42.540;23.496;2023-01-15T00:57:31;32.88;;;13.85;;
35887;SDS011;21990;42.540;23.496;2023-01-15T00:59:56;43.65;;;14.80;;
35887;SDS011;21990;42.540;23.496;2023-01-15T01:02:22;27.83;;;13.55;;
35887;SDS011;21990;42.540;23.496;2023-01-15T01:04:47;34.58;;;14.65;;
35887;SDS011;21990;42.540;23.496;2023-01-15T01:07:13;30.52;;;15.02;;
35887;SDS011;21990;42.540;23.496;2023-01-15T01:09:38;35.92;;;16.83;;
35887;SDS011;21990;42.540;23.496;2023-01-15T01:12:04;35.20;;;17.45;;
35887;SDS011;21990;42.540;23.496;2023-01-15T01:14:30;38.40;;;19.08;;
35887;SDS011;21990;42.540;23.496;2023-01-15T01:16:55;35.45;;;17.08;;
35887;SDS011;21990;42.540;23.496;2023-01-15T01:19:22;35.33;;;16.17;;
35887;SDS011;21990;42.540;23.496;2023-01-15T01:21:49;35.35;;;15.55;;
35887;SDS011;21990;42.540;23.496;2023-01-15T01:24:16;26.40;;;14.25;;
35887;SDS011;21990;42.540;23.496;2023-01-15T01:26:44;29.88;;;13.70;;
35887;SDS011;21990;42.540;23.496;2023-01-15T01:29:28;33.67;;;14.15;;
35887;SDS011;21990;42.540;23.496;2023-01-15T01:31:53;31.02;;;14.82;;
35887;SDS011;21990;42.540;23.496;2023-01-15T01:34:19;30.40;;;14.85;;
35887;SDS011;21990;42.540;23.496;2023-01-15T01:36:44;27.77;;;14.27;;
35887;SDS011;21990;42.540;23.496;2023-01-15T01:39:14;28.00;;;13.38;;
35887;SDS011;21990;42.540;23.496;2023-01-15T01:41:42;30.35;;;14.20;;
35887;SDS011;21990;42.540;23.496;2023-01-15T01:46:52;27.02;;;13.82;;
35887;SDS011;21990;42.540;23.496;2023-01-15T01:49:18;32.08;;;14.85;;
35887;SDS011;21990;42.540;23.496;2023-01-15T01:51:46;34.22;;;15.02;;
35887;SDS011;21990;42.540;23.496;2023-01-15T01:54:16;32.95;;;14.68;;
35887;SDS011;21990;42.540;23.496;2023-01-15T01:56:45;36.03;;;14.38;;
35887;SDS011;21990;42.540;23.496;2023-01-15T01:59:13;28.88;;;14.75;;
35887;SDS011;21990;42.540;23.496;2023-01-15T02:01:40;30.55;;;14.40;;
35887;SDS011;21990;42.540;23.496;2023-01-15T02:04:06;27.38;;;13.38;;
35887;SDS011;21990;42.540;23.496;2023-01-15T02:06:34;35.15;;;13.63;;
35887;SDS011;21990;42.540;23.496;2023-01-15T02:09:00;29.80;;;14.07;;
35887;SDS011;21990;42.540;23.496;2023-01-15T02:11:25;29.05;;;14.13;;
35887;SDS011;21990;42.540;23.496;2023-01-15T02:14:06;32.50;;;15.43;;
35887;SDS011;21990;42.540;23.496;2023-01-15T02:25:08;31.08;;;13.23;;
35887;SDS011;21990;42.540;23.496;2023-01-15T02:30:17;34.92;;;14.90;;
35887;SDS011;21990;42.540;23.496;2023-01-15T02:32:52;30.17;;;14.32;;
35887;SDS011;21990;42.540;23.496;2023-01-15T02:35:28;35.10;;;17.25;;
35887;SDS011;21990;42.540;23.496;2023-01-15T02:40:26;39.38;;;16.33;;
35887;SDS011;21990;42.540;23.496;2023-01-15T02:42:53;36.65;;;16.60;;
35887;SDS011;21990;42.540;23.496;2023-01-15T02:45:21;35.40;;;16.15;;
35887;SDS011;21990;42.540;23.496;2023-01-15T02:47:54;28.45;;;13.52;;
35887;SDS011;21990;42.540;23.496;2023-01-15T02:50:27;31.98;;;14.57;;
35887;SDS011;21990;42.540;23.496;2023-01-15T02:53:00;36.05;;;16.30;;
35887;SDS011;21990;42.540;23.496;2023-01-15T02:55:34;35.33;;;15.38;;
35887;SDS011;21990;42.540;23.496;2023-01-15T02:58:04;35.47;;;16.15;;
35887;SDS011;21990;42.540;23.496;2023-01-15T03:00:35;42.00;;;17.35;;
35887;SDS011;21990;42.540;23.496;2023-01-15T03:03:16;38.50;;;17.83;;
35887;SDS011;21990;42.540;23.496;2023-01-15T03:05:58;36.85;;;18.27;;
35887;SDS011;21990;42.540;23.496;2023-01-15T03:08:28;38.03;;;18.27;;
35887;SDS011;21990;42.540;23.496;2023-01-15T03:19:02;35.83;;;16.50;;
35887;SDS011;21990;42.540;23.496;2023-01-15T03:21:44;40.65;;;18.17;;
35887;SDS011;21990;42.540;23.496;2023-01-15T03:24:30;39.92;;;18.55;;
35887;SDS011;21990;42.540;23.496;2023-01-15T03:27:00;40.00;;;19.60;;
35887;SDS011;21990;42.540;23.496;2023-01-15T03:29:27;52.25;;;21.30;;
35887;SDS011;21990;42.540;23.496;2023-01-15T03:31:57;44.80;;;21.65;;
35887;SDS011;21990;42.540;23.496;2023-01-15T03:34:24;47.15;;;20.33;;
35887;SDS011;21990;42.540;23.496;2023-01-15T03:36:55;44.35;;;20.10;;
35887;SDS011;21990;42.540;23.496;2023-01-15T03:39:20;49.22;;;20.70;;
35887;SDS011;21990;42.540;23.496;2023-01-15T03:41:53;45.67;;;19.40;;
35887;SDS011;21990;42.540;23.496;2023-01-15T03:55:23;39.25;;;18.35;;
35887;SDS011;21990;42.540;23.496;2023-01-15T03:57:59;37.95;;;17.95;;
35887;SDS011;21990;42.540;23.496;2023-01-15T04:00:35;36.33;;;17.80;;
35887;SDS011;21990;42.540;23.496;2023-01-15T04:03:06;36.45;;;17.02;;
35887;SDS011;21990;42.540;23.496;2023-01-15T04:05:33;41.90;;;18.17;;
35887;SDS011;21990;42.540;23.496;2023-01-15T04:08:01;39.38;;;17.17;;
35887;SDS011;21990;42.540;23.496;2023-01-15T04:10:28;41.30;;;17.90;;
35887;SDS011;21990;42.540;23.496;2023-01-15T04:12:53;38.88;;;17.27;;
35887;SDS011;21990;42.540;23.496;2023-01-15T04:15:19;38.42;;;17.30;;
35887;SDS011;21990;42.540;23.496;2023-01-15T04:17:44;37.42;;;17.00;;
35887;SDS011;21990;42.540;23.496;2023-01-15T04:20:10;40.22;;;17.05;;
35887;SDS011;21990;42.540;23.496;2023-01-15T04:22:36;38.88;;;17.08;;
35887;SDS011;21990;42.540;23.496;2023-01-15T04:25:02;41.55;;;16.55;;
35887;SDS011;21990;42.540;23.496;2023-01-15T04:27:29;32.38;;;15.85;;
35887;SDS011;21990;42.540;23.496;2023-01-15T04:29:55;31.73;;;16.35;;
35887;SDS011;21990;42.540;23.496;2023-01-15T04:32:21;34.05;;;16.30;;
35887;SDS011;21990;42.540;23.496;2023-01-15T04:34:46;32.50;;;16.35;;
35887;SDS011;21990;42.540;23.496;2023-01-15T04:37:12;37.08;;;17.55;;
35887;SDS011;21990;42.540;23.496;2023-01-15T04:39:38;35.42;;;17.45;;
35887;SDS011;21990;42.540;23.496;2023-01-15T04:42:04;35.55;;;17.20;;
35887;SDS011;21990;42.540;23.496;2023-01-15T04:44:48;35.05;;;17.88;;
35887;SDS011;21990;42.540;23.496;2023-01-15T04:47:13;36.92;;;18.33;;
35887;SDS011;21990;42.540;23.496;2023-01-15T04:49:39;42.13;;;18.33;;
35887;SDS011;21990;42.540;23.496;2023-01-15T04:52:04;38.40;;;17.95;;
35887;SDS011;21990;42.540;23.496;2023-01-15T04:54:30;36.65;;;17.88;;
35887;SDS011;21990;42.540;23.496;2023-01-15T04:56:56;37.83;;;18.55;;
35887;SDS011;21990;42.540;23.496;2023-01-15T04:59:22;45.55;;;20.80;;
35887;SDS011;21990;42.540;23.496;2023-01-15T05:01:50;54.45;;;24.98;;
35887;SDS011;21990;42.540;23.496;2023-01-15T05:04:16;59.13;;;28.30;;
35887;SDS011;21990;42.540;23.496;2023-01-15T05:06:42;44.22;;;21.00;;
35887;SDS011;21990;42.540;23.496;2023-01-15T05:09:07;37.65;;;17.63;;
35887;SDS011;21990;42.540;23.496;2023-01-15T05:11:36;38.95;;;17.95;;
35887;SDS011;21990;42.540;23.496;2023-01-15T05:14:03;42.40;;;18.52;;
35887;SDS011;21990;42.540;23.496;2023-01-15T05:16:31;49.30;;;21.83;;
35887;SDS011;21990;42.540;23.496;2023-01-15T05:18:58;56.88;;;26.83;;
35887;SDS011;21990;42.540;23.496;2023-01-15T05:21:27;76.13;;;33.35;;
35887;SDS011;21990;42.540;23.496;2023-01-15T05:23:57;81.80;;;33.53;;
35887;SDS011;21990;42.540;23.496;2023-01-15T05:26:24;71.75;;;30.75;;
35887;SDS011;21990;42.540;23.496;2023-01-15T05:28:54;83.53;;;34.35;;
35887;SDS011;21990;42.540;23.496;2023-01-15T05:31:21;75.32;;;32.85;;
35887;SDS011;21990;42.540;23.496;2023-01-15T05:33:48;67.95;;;30.08;;
35887;SDS011;21990;42.540;23.496;2023-01-15T05:36:15;58.80;;;26.70;;
35887;SDS011;21990;42.540;23.496;2023-01-15T05:38:42;55.20;;;24.88;;
35887;SDS011;21990;42.540;23.496;2023-01-15T05:41:10;56.75;;;24.70;;
35887;SDS011;21990;42.540;23.496;2023-01-15T05:43:58;50.97;;;24.77;;
35887;SDS011;21990;42.540;23.496;2023-01-15T05:46:25;48.03;;;22.75;;
35887;SDS011;21990;42.540;23.496;2023-01-15T05:48:50;50.13;;;24.10;;
35887;SDS011;21990;42.540;23.496;2023-01-15T05:51:16;52.13;;;25.25;;
35887;SDS011;21990;42.540;23.496;2023-01-15T05:53:42;52.15;;;24.30;;
35887;SDS011;21990;42.540;23.496;2023-01-15T05:56:07;49.88;;;22.63;;
35887;SDS011;21990;42.540;23.496;2023-01-15T05:58:33;54.22;;;23.90;;
35887;SDS011;21990;42.540;23.496;2023-01-15T06:00:59;55.42;;;22.75;;
35887;SDS011;21990;42.540;23.496;2023-01-15T06:03:25;53.03;;;23.88;;
35887;SDS011;21990;42.540;23.496;2023-01-15T06:05:54;51.47;;;22.95;;
35887;SDS011;21990;42.540;23.496;2023-01-15T06:08:21;55.15;;;23.70;;
35887;SDS011;21990;42.540;23.496;2023-01-15T06:10:47;51.00;;;22.58;;
35887;SDS011;21990;42.540;23.496;2023-01-15T06:13:14;48.38;;;23.13;;
35887;SDS011;21990;42.540;23.496;2023-01-15T06:15:41;48.50;;;22.63;;
35887;SDS011;21990;42.540;23.496;2023-01-15T06:18:06;46.60;;;21.23;;
35887;SDS011;21990;42.540;23.496;2023-01-15T06:20:35;45.17;;;22.05;;
35887;SDS011;21990;42.540;23.496;2023-01-15T06:23:05;59.70;;;27.75;;
35887;SDS011;21990;42.540;23.496;2023-01-15T06:25:34;75.82;;;33.28;;
35887;SDS011;21990;42.540;23.496;2023-01-15T06:28:01;61.10;;;27.50;;
35887;SDS011;21990;42.540;23.496;2023-01-15T06:30:31;55.95;;;27.15;;
35887;SDS011;21990;42.540;23.496;2023-01-15T06:32:57;58.10;;;27.98;;
35887;SDS011;21990;42.540;23.496;2023-01-15T06:35:22;63.90;;;31.08;;
35887;SDS011;21990;42.540;23.496;2023-01-15T06:37:48;65.88;;;25.80;;
35887;SDS011;21990;42.540;23.496;2023-01-15T06:40:15;63.58;;;26.48;;
35887;SDS011;21990;42.540;23.496;2023-01-15T06:42:40;59.35;;;25.17;;
35887;SDS011;21990;42.540;23.496;2023-01-15T06:45:24;57.53;;;27.20;;
35887;SDS011;21990;42.540;23.496;2023-01-15T06:48:08;68.85;;;32.08;;
35887;SDS011;21990;42.540;23.496;2023-01-15T06:50:34;60.60;;;29.38;;
35887;SDS011;21990;42.540;23.496;2023-01-15T06:52:59;59.60;;;28.67;;
35887;SDS011;21990;42.540;23.496;2023-01-15T06:55:25;61.35;;;30.27;;
35887;SDS011;21990;42.540;23.496;2023-01-15T06:57:50;113.30;;;45.95;;
35887;SDS011;21990;42.540;23.496;2023-01-15T07:00:16;98.18;;;43.88;;
35887;SDS011;21990;42.540;23.496;2023-01-15T07:02:42;99.05;;;42.75;;
35887;SDS011;21990;42.540;23.496;2023-01-15T07:05:07;104.80;;;46.45;;
35887;SDS011;21990;42.540;23.496;2023-01-15T07:07:33;90.68;;;42.85;;
35887;SDS011;21990;42.540;23.496;2023-01-15T07:09:59;95.65;;;42.70;;
35887;SDS011;21990;42.540;23.496;2023-01-15T07:12:24;123.10;;;55.28;;
35887;SDS011;21990;42.540;23.496;2023-01-15T07:14:50;186.35;;;91.30;;
35887;SDS011;21990;42.540;23.496;2023-01-15T07:17:16;181.50;;;83.07;;
35887;SDS011;21990;42.540;23.496;2023-01-15T07:19:42;113.82;;;50.40;;
35887;SDS011;21990;42.540;23.496;2023-01-15T07:22:08;91.57;;;43.20;;
35887;SDS011;21990;42.540;23.496;2023-01-15T07:24:34;110.78;;;52.53;;
35887;SDS011;21990;42.540;23.496;2023-01-15T07:26:59;126.22;;;58.30;;
35887;SDS011;21990;42.540;23.496;2023-01-15T07:29:25;162.25;;;76.63;;
35887;SDS011;21990;42.540;23.496;2023-01-15T07:31:51;121.60;;;56.35;;
35887;SDS011;21990;42.540;23.496;2023-01-15T07:34:17;111.40;;;48.53;;
35887;SDS011;21990;42.540;23.496;2023-01-15T07:36:42;94.70;;;44.80;;
35887;SDS011;21990;42.540;23.496;2023-01-15T07:39:08;90.78;;;42.17;;
35887;SDS011;21990;42.540;23.496;2023-01-15T07:41:35;81.10;;;39.45;;
35887;SDS011;21990;42.540;23.496;2023-01-15T07:44:20;59.17;;;29.48;;
35887;SDS011;21990;42.540;23.496;2023-01-15T07:50:09;49.70;;;24.85;;
35887;SDS011;21990;42.540;23.496;2023-01-15T07:52:45;131.82;;;73.40;;
35887;SDS011;21990;42.540;23.496;2023-01-15T07:55:11;178.60;;;92.05;;
35887;SDS011;21990;42.540;23.496;2023-01-15T07:57:37;92.03;;;49.30;;
35887;SDS011;21990;42.540;23.496;2023-01-15T08:00:04;54.83;;;29.20;;
35887;SDS011;21990;42.540;23.496;2023-01-15T08:02:31;78.25;;;39.90;;
35887;SDS011;21990;42.540;23.496;2023-01-15T08:04:57;36.58;;;18.20;;
35887;SDS011;21990;42.540;23.496;2023-01-15T08:07:22;24.50;;;12.88;;
35887;SDS011;21990;42.540;23.496;2023-01-15T08:09:48;25.98;;;12.50;;
35887;SDS011;21990;42.540;23.496;2023-01-15T08:12:14;21.10;;;11.88;;
35887;SDS011;21990;42.540;23.496;2023-01-15T08:14:58;19.65;;;10.05;;
35887;SDS011;21990;42.540;23.496;2023-01-15T08:17:42;21.20;;;12.20;;
35887;SDS011;21990;42.540;23.496;2023-01-15T08:20:13;36.35;;;17.13;;
35887;SDS011;21990;42.540;23.496;2023-01-15T08:22:49;51.50;;;23.00;;
35887;SDS011;21990;42.540;23.496;2023-01-15T08:25:17;37.58;;;17.63;;
35887;SDS011;21990;42.540;23.496;2023-01-15T08:27:44;45.90;;;23.58;;
35887;SDS011;21990;42.540;23.496;2023-01-15T08:30:11;63.67;;;31.67;;
35887;SDS011;21990;42.540;23.496;2023-01-15T08:32:41;31.15;;;14.52;;
35887;SDS011;21990;42.540;23.496;2023-01-15T08:35:07;74.72;;;41.63;;
35887;SDS011;21990;42.540;23.496;2023-01-15T08:37:33;26.20;;;15.27;;
35887;SDS011;21990;42.540;23.496;2023-01-15T08:39:59;119.05;;;69.13;;
35887;SDS011;21990;42.540;23.496;2023-01-15T08:42:24;52.30;;;29.75;;
35887;SDS011;21990;42.540;23.496;2023-01-15T08:44:50;31.63;;;16.95;;
35887;SDS011;21990;42.540;23.496;2023-01-15T08:47:16;42.85;;;22.30;;
35887;SDS011;21990;42.540;23.496;2023-01-15T08:49:41;62.22;;;36.08;;
35887;SDS011;21990;42.540;23.496;2023-01-15T08:52:07;29.00;;;18.50;;
35887;SDS011;21990;42.540;23.496;2023-01-15T08:54:33;21.13;;;12.77;;
35887;SDS011;21990;42.540;23.496;2023-01-15T08:56:59;29.08;;;15.50;;
35887;SDS011;21990;42.540;23.496;2023-01-15T08:59:25;24.30;;;11.60;;
35887;SDS011;21990;42.540;23.496;2023-01-15T09:01:50;27.20;;;11.38;;
35887;SDS011;21990;42.540;23.496;2023-01-15T09:04:17;21.20;;;12.10;;
35887;SDS011;21990;42.540;23.496;2023-01-15T09:06:44;24.38;;;11.68;;
35887;SDS011;21990;42.540;23.496;2023-01-15T09:09:11;26.15;;;13.63;;
35887;SDS011;21990;42.540;23.496;2023-01-15T09:11:37;19.30;;;9.73;;
35887;SDS011;21990;42.540;23.496;2023-01-15T09:14:10;21.83;;;10.82;;
35887;SDS011;21990;42.540;23.496;2023-01-15T09:16:37;14.57;;;8.55;;
35887;SDS011;21990;42.540;23.496;2023-01-15T09:19:04;19.48;;;9.40;;
35887;SDS011;21990;42.540;23.496;2023-01-15T09:21:30;13.50;;;8.55;;
35887;SDS011;21990;42.540;23.496;2023-01-15T09:23:56;18.25;;;9.73;;
35887;SDS011;21990;42.540;23.496;2023-01-15T09:26:24;24.40;;;14.35;;
35887;SDS011;21990;42.540;23.496;2023-01-15T09:28:50;19.52;;;11.43;;
35887;SDS011;21990;42.540;23.496;2023-01-15T09:31:16;22.05;;;12.18;;
35887;SDS011;21990;42.540;23.496;2023-01-15T09:33:41;18.95;;;11.63;;
35887;SDS011;21990;42.540;23.496;2023-01-15T09:36:13;21.73;;;12.65;;
35887;SDS011;21990;42.540;23.496;2023-01-15T09:38:40;22.73;;;11.20;;
35887;SDS011;21990;42.540;23.496;2023-01-15T09:41:10;26.27;;;12.57;;
35887;SDS011;21990;42.540;23.496;2023-01-15T09:44:20;21.67;;;10.10;;
35887;SDS011;21990;42.540;23.496;2023-01-15T09:46:53;25.55;;;11.23;;
35887;SDS011;21990;42.540;23.496;2023-01-15T09:49:33;17.80;;;9.88;;
35887;SDS011;21990;42.540;23.496;2023-01-15T09:52:23;14.43;;;7.90;;
35887;SDS011;21990;42.540;23.496;2023-01-15T09:57:34;32.72;;;14.65;;
35887;SDS011;21990;42.540;23.496;2023-01-15T10:00:04;36.95;;;15.57;;
35887;SDS011;21990;42.540;23.496;2023-01-15T10:03:19;52.75;;;23.13;;
35887;SDS011;21990;42.540;23.496;2023-01-15T10:05:30;25.27;;;12.95;;
35887;SDS011;21990;42.540;23.496;2023-01-15T10:08:31;76.45;;;29.85;;
35887;SDS011;21990;42.540;23.496;2023-01-15T10:11:05;27.98;;;13.98;;
35887;SDS011;21990;42.540;23.496;2023-01-15T10:14:13;107.63;;;24.45;;
35887;SDS011;21990;42.540;23.496;2023-01-15T10:16:48;47.67;;;14.75;;
35887;SDS011;21990;42.540;23.496;2023-01-15T10:19:13;41.35;;;19.80;;
35887;SDS011;21990;42.540;23.496;2023-01-15T10:21:43;29.88;;;14.30;;
35887;SDS011;21990;42.540;23.496;2023-01-15T10:26:56;56.70;;;23.25;;
35887;SDS011;21990;42.540;23.496;2023-01-15T10:37:50;14.55;;;8.25;;
35887;SDS011;21990;42.540;23.496;2023-01-15T10:43:27;13.02;;;7.82;;
35887;SDS011;21990;42.540;23.496;2023-01-15T10:45:56;13.80;;;8.95;;
35887;SDS011;21990;42.540;23.496;2023-01-15T10:51:29;16.25;;;8.90;;
35887;SDS011;21990;42.540;23.496;2023-01-15T10:56:43;15.55;;;6.25;;
35887;SDS011;21990;42.540;23.496;2023-01-15T10:59:17;13.85;;;7.20;;
35887;SDS011;21990;42.540;23.496;2023-01-15T11:01:52;23.63;;;11.73;;
35887;SDS011;21990;42.540;23.496;2023-01-15T11:04:19;15.65;;;8.57;;
35887;SDS011;21990;42.540;23.496;2023-01-15T11:06:45;20.67;;;8.57;;
35887;SDS011;21990;42.540;23.496;2023-01-15T11:09:32;17.45;;;7.40;;
35887;SDS011;21990;42.540;23.496;2023-01-15T11:12:32;14.07;;;7.13;;
35887;SDS011;21990;42.540;23.496;2023-01-15T11:15:12;14.35;;;7.00;;
35887;SDS011;21990;42.540;23.496;2023-01-15T11:17:59;11.55;;;6.57;;
35887;SDS011;21990;42.540;23.496;2023-01-15T11:20:45;15.63;;;8.60;;
35887;SDS011;21990;42.540;23.496;2023-01-15T11:23:17;15.75;;;9.60;;
35887;SDS011;21990;42.540;23.496;2023-01-15T11:25:57;16.27;;;7.20;;
35887;SDS011;21990;42.540;23.496;2023-01-15T11:31:04;18.10;;;9.02;;
35887;SDS011;21990;42.540;23.496;2023-01-15T11:33:30;13.63;;;7.43;;
35887;SDS011;21990;42.540;23.496;2023-01-15T11:35:57;10.95;;;7.22;;
35887;SDS011;21990;42.540;23.496;2023-01-15T11:38:28;12.80;;;7.05;;
35887;SDS011;21990;42.540;23.496;2023-01-15T11:41:01;11.85;;;6.78;;
35887;SDS011;21990;42.540;23.496;2023-01-15T11:43:29;14.25;;;7.35;;
35887;SDS011;21990;42.540;23.496;2023-01-15T11:46:28;11.65;;;7.57;;
35887;SDS011;21990;42.540;23.496;2023-01-15T11:49:20;16.35;;;7.72;;
35887;SDS011;21990;42.540;23.496;2023-01-15T11:52:05;14.05;;;7.43;;
35887;SDS011;21990;42.540;23.496;2023-01-15T11:54:38;19.08;;;8.65;;
35887;SDS011;21990;42.540;23.496;2023-01-15T11:57:07;14.60;;;7.97;;
35887;SDS011;21990;42.540;23.496;2023-01-15T11:59:34;20.75;;;11.50;;
35887;SDS011;21990;42.540;23.496;2023-01-15T12:02:26;14.38;;;7.68;;
35887;SDS011;21990;42.540;23.496;2023-01-15T12:04:53;15.40;;;8.57;;
35887;SDS011;21990;42.540;23.496;2023-01-15T12:07:23;15.80;;;8.10;;
35887;SDS011;21990;42.540;23.496;2023-01-15T12:09:59;15.45;;;7.93;;
35887;SDS011;21990;42.540;23.496;2023-01-15T12:15:05;16.83;;;7.63;;
35887;SDS011;21990;42.540;23.496;2023-01-15T12:20:06;24.77;;;13.88;;
35887;SDS011;21990;42.540;23.496;2023-01-15T12:25:44;18.65;;;10.88;;
35887;SDS011;21990;42.540;23.496;2023-01-15T12:39:06;30.83;;;16.92;;
35887;SDS011;21990;42.540;23.496;2023-01-15T12:41:40;46.53;;;13.50;;
35887;SDS011;21990;42.540;23.496;2023-01-15T12:44:40;19.60;;;9.70;;
35887;SDS011;21990;42.540;23.496;2023-01-15T12:47:28;25.02;;;10.77;;
35887;SDS011;21990;42.540;23.496;2023-01-15T12:53:15;46.55;;;22.38;;
35887;SDS011;21990;42.540;23.496;2023-01-15T12:55:47;65.47;;;30.67;;
35887;SDS011;21990;42.540;23.496;2023-01-15T13:01:03;81.18;;;39.58;;
35887;SDS011;21990;42.540;23.496;2023-01-15T13:03:52;32.97;;;17.45;;
35887;SDS011;21990;42.540;23.496;2023-01-15T13:09:48;51.35;;;27.00;;
35887;SDS011;21990;42.540;23.496;2023-01-15T13:12:23;31.70;;;19.15;;
35887;SDS011;21990;42.540;23.496;2023-01-15T13:14:52;37.33;;;23.58;;
35887;SDS011;21990;42.540;23.496;2023-01-15T13:17:23;34.65;;;21.20;;
35887;SDS011;21990;42.540;23.496;2023-01-15T13:20:01;53.63;;;27.92;;
35887;SDS011;21990;42.540;23.496;2023-01-15T13:22:51;71.22;;;32.83;;
35887;SDS011;21990;42.540;23.496;2023-01-15T13:26:17;45.67;;;25.73;;
35887;SDS011;21990;42.540;23.496;2023-01-15T13:33:57;42.80;;;22.27;;
35887;SDS011;21990;42.540;23.496;2023-01-15T13:36:48;20.10;;;12.05;;
35887;SDS011;21990;42.540;23.496;2023-01-15T13:39:19;13.65;;;9.10;;
35887;SDS011;21990;42.540;23.496;2023-01-15T13:41:49;18.70;;;8.60;;
35887;SDS011;21990;42.540;23.496;2023-01-15T13:44:37;15.38;;;9.18;;
35887;SDS011;21990;42.540;23.496;2023-01-15T13:47:12;14.40;;;8.30;;
35887;SDS011;21990;42.540;23.496;2023-01-15T13:49:54;14.73;;;8.88;;
35887;SDS011;21990;42.540;23.496;2023-01-15T13:52:32;16.77;;;7.88;;
35887;SDS011;21990;42.540;23.496;2023-01-15T13:55:23;14.95;;;8.30;;
35887;SDS011;21990;42.540;23.496;2023-01-15T13:57:50;82.75;;;35.78;;
35887;SDS011;21990;42.540;23.496;2023-01-15T14:00:32;136.10;;;57.47;;
35887;SDS011;21990;42.540;23.496;2023-01-15T14:03:22;15.48;;;9.00;;
35887;SDS011;21990;42.540;23.496;2023-01-15T14:05:57;19.10;;;9.88;;
35887;SDS011;21990;42.540;23.496;2023-01-15T14:08:26;16.63;;;9.75;;
35887;SDS011;21990;42.540;23.496;2023-01-15T14:10:53;20.08;;;11.77;;
35887;SDS011;21990;42.540;23.496;2023-01-15T14:21:46;24.27;;;13.32;;
35887;SDS011;21990;42.540;23.496;2023-01-15T14:24:48;45.13;;;24.05;;
35887;SDS011;21990;42.540;23.496;2023-01-15T14:35:01;30.77;;;16.90;;
35887;SDS011;21990;42.540;23.496;2023-01-15T14:37:50;21.73;;;12.00;;
35887;SDS011;21990;42.540;23.496;2023-01-15T14:40:52;23.90;;;14.60;;
35887;SDS011;21990;42.540;23.496;2023-01-15T14:43:23;29.45;;;16.90;;
35887;SDS011;21990;42.540;23.496;2023-01-15T14:45:51;19.05;;;11.77;;
35887;SDS011;21990;42.540;23.496;2023-01-15T14:50:52;22.33;;;11.75;;
35887;SDS011;21990;42.540;23.496;2023-01-15T15:01:35;24.77;;;12.90;;
35887;SDS011;21990;42.540;23.496;2023-01-15T15:07:19;21.98;;;12.32;;
35887;SDS011;21990;42.540;23.496;2023-01-15T15:12:30;25.50;;;14.10;;
35887;SDS011;21990;42.540;23.496;2023-01-15T15:15:16;21.95;;;11.85;;
35887;SDS011;21990;42.540;23.496;2023-01-15T15:26:21;22.52;;;13.40;;
35887;SDS011;21990;42.540;23.496;2023-01-15T15:28:56;32.80;;;15.18;;
35887;SDS011;21990;42.540;23.496;2023-01-15T15:31:30;28.60;;;14.35;;
35887;SDS011;21990;42.540;23.496;2023-01-15T15:33:58;23.38;;;13.35;;
35887;SDS011;21990;42.540;23.496;2023-01-15T15:36:24;29.95;;;15.65;;
35887;SDS011;21990;42.540;23.496;2023-01-15T15:38:54;30.98;;;16.02;;
35887;SDS011;21990;42.540;23.496;2023-01-15T15:41:26;26.13;;;13.20;;
35887;SDS011;21990;42.540;23.496;2023-01-15T15:44:34;27.35;;;14.07;;
35887;SDS011;21990;42.540;23.496;2023-01-15T15:47:23;29.10;;;14.13;;
35887;SDS011;21990;42.540;23.496;2023-01-15T15:52:56;41.42;;;19.83;;
35887;SDS011;21990;42.540;23.496;2023-01-15T15:55:23;33.78;;;17.08;;
35887;SDS011;21990;42.540;23.496;2023-01-15T15:57:54;81.38;;;42.17;;
35887;SDS011;21990;42.540;23.496;2023-01-15T16:00:28;93.47;;;41.20;;
35887;SDS011;21990;42.540;23.496;2023-01-15T16:02:58;179.90;;;73.13;;
35887;SDS011;21990;42.540;23.496;2023-01-15T16:05:30;123.72;;;59.58;;
35887;SDS011;21990;42.540;23.496;2023-01-15T16:08:17;53.50;;;28.15;;
35887;SDS011;21990;42.540;23.496;2023-01-15T16:10:45;45.22;;;25.27;;
35887;SDS011;21990;42.540;23.496;2023-01-15T16:15:58;35.08;;;17.80;;
35887;SDS011;21990;42.540;23.496;2023-01-15T16:18:33;29.33;;;16.13;;
35887;SDS011;21990;42.540;23.496;2023-01-15T16:21:04;30.38;;;18.30;;
35887;SDS011;21990;42.540;23.496;2023-01-15T16:23:32;29.45;;;15.02;;
35887;SDS011;21990;42.540;23.496;2023-01-15T16:26:07;27.27;;;14.57;;
35887;SDS011;21990;42.540;23.496;2023-01-15T16:28:54;24.20;;;13.38;;
35887;SDS011;21990;42.540;23.496;2023-01-15T16:31:22;27.85;;;13.75;;
35887;SDS011;21990;42.540;23.496;2023-01-15T16:33:55;31.30;;;14.15;;
35887;SDS011;21990;42.540;23.496;2023-01-15T16:36:22;28.48;;;14.00;;
35887;SDS011;21990;42.540;23.496;2023-01-15T16:38:50;31.60;;;16.08;;
35887;SDS011;21990;42.540;23.496;2023-01-15T16:43:55;27.38;;;13.98;;
35887;SDS011;21990;42.540;23.496;2023-01-15T16:47:06;31.10;;;16.52;;
35887;SDS011;21990;42.540;23.496;2023-01-15T16:49:39;32.35;;;17.42;;
35887;SDS011;21990;42.540;23.496;2023-01-15T16:52:33;28.15;;;15.10;;
35887;SDS011;21990;42.540;23.496;2023-01-15T17:00:45;27.55;;;14.68;;
